Time;durP1;ratioP1;P1;durP2;ratioP2;P2;SDS_P1;SDS_P2;PMS_P1;PMS_P2;Temp;Humidity;BMP_temperature;BMP_pressure;BME280_temperature;BME280_humidity;BME280_pressure;Samples;Min_cycle;Max_cycle;Signal;HPM_P1;HPM_P2
2023/06/10 00:04:27;;;;;;;9.68;5.70;;;;;;;18.64;100.00;104228.47;5051810;28;20081;-72
2023/06/10 00:06:53;;;;;;;9.50;5.25;;;;;;;18.89;100.00;104215.72;5033242;28;20227;-71
2023/06/10 00:09:20;;;;;;;6.47;5.30;;;;;;;19.13;100.00;104221.88;5051752;28;20029;-73
2023/06/10 00:11:47;;;;;;;8.50;5.28;;;;;;;18.74;100.00;104201.84;5051712;28;20024;-73
2023/06/10 00:17:33;;;;;;;8.77;5.83;;;;;;;18.40;100.00;104154.31;5053553;28;20035;-72
2023/06/10 00:19:59;;;;;;;8.88;5.68;;;;;;;18.48;100.00;104134.66;5054837;28;20112;-72
2023/06/10 00:22:29;;;;;;;8.82;5.47;;;;;;;17.94;100.00;104059.53;5055421;28;20115;-71
2023/06/10 00:24:55;;;;;;;9.95;5.80;;;;;;;18.66;100.00;104194.06;5055454;28;20066;-73
2023/06/10 00:30:42;;;;;;;8.05;5.60;;;;;;;18.53;100.00;104163.03;5055492;28;20082;-74
2023/06/10 00:33:07;;;;;;;7.88;5.80;;;;;;;18.61;100.00;104177.72;5054695;28;20033;-72
2023/06/10 00:35:33;;;;;;;8.80;5.85;;;;;;;18.52;100.00;104146.72;5054616;28;20463;-74
2023/06/10 00:37:58;;;;;;;10.05;6.05;;;;;;;18.85;100.00;104183.03;5036999;28;20028;-72
2023/06/10 00:40:23;;;;;;;7.05;5.50;;;;;;;18.80;100.00;104176.09;5054431;28;20021;-72
2023/06/10 00:42:49;;;;;;;8.35;5.30;;;;;;;18.29;100.00;104096.69;5036752;28;20025;-72
2023/06/10 00:45:14;;;;;;;8.00;5.57;;;;;;;18.54;100.00;104128.69;5054999;28;20452;-73
2023/06/10 00:47:40;;;;;;;8.27;5.70;;;;;;;18.36;100.00;104113.91;5054806;28;20056;-72
2023/06/10 00:53:28;;;;;;;5.88;5.28;;;;;;;18.24;100.00;104111.28;5055235;28;20031;-72
2023/06/10 00:55:53;;;;;;;7.13;5.15;;;;;;;18.14;100.00;104074.25;5036339;28;20089;-72
2023/06/10 00:58:19;;;;;;;8.60;5.20;;;;;;;18.36;100.00;104121.66;5054500;28;20449;-72
2023/06/10 01:00:45;;;;;;;7.97;5.45;;;;;;;18.35;100.00;104101.91;5054416;28;20029;-72
2023/06/10 01:03:11;;;;;;;7.47;5.20;;;;;;;18.05;100.00;104047.59;5036452;28;20075;-72
2023/06/10 01:05:38;;;;;;;8.30;5.43;;;;;;;18.32;100.00;104094.16;5054429;28;20021;-72
2023/06/10 01:08:28;;;;;;;9.25;5.00;;;;;;;17.87;100.00;104034.56;5054624;28;20040;-73
2023/06/10 01:10:59;;;;;;;9.27;5.00;;;;;;;18.24;100.00;104076.91;5036242;28;20035;-71
2023/06/10 01:13:28;;;;;;;7.50;5.13;;;;;;;18.27;100.00;104061.47;5054124;28;20514;-73
2023/06/10 01:19:17;;;;;;;6.03;4.75;;;;;;;17.76;100.00;104010.47;5054100;28;20091;-72
2023/06/10 01:21:48;;;;;;;6.65;4.47;;;;;;;18.66;100.00;104124.44;5054096;28;20025;-72
2023/06/10 01:24:14;;;;;;;10.17;4.63;;;;;;;18.28;100.00;104100.16;5054344;28;20021;-72
2023/06/10 01:26:42;;;;;;;8.00;4.80;;;;;;;18.41;100.00;104099.34;5054179;28;20025;-72
2023/06/10 01:29:14;;;;;;;6.68;4.70;;;;;;;17.94;100.00;104023.47;5053693;28;20024;-72
2023/06/10 01:31:43;;;;;;;7.55;5.10;;;;;;;17.89;100.00;104027.72;5054159;28;20024;-72
2023/06/10 01:37:30;;;;;;;7.20;5.07;;;;;;;18.06;100.00;104067.34;5054034;28;20043;-72
2023/06/10 01:39:58;;;;;;;9.18;5.57;;;;;;;17.88;100.00;103997.69;5053566;28;20509;-73
2023/06/10 01:42:25;;;;;;;7.97;5.55;;;;;;;17.55;100.00;103944.22;5035871;28;20025;-71
2023/06/10 01:48:12;;;;;;;8.65;5.68;;;;;;;17.64;100.00;103940.88;5053919;28;20090;-72
2023/06/10 01:50:38;;;;;;;11.65;6.30;;;;;;;17.74;100.00;103928.06;5053775;28;20464;-73
2023/06/10 01:53:05;;;;;;;8.63;5.97;;;;;;;17.65;100.00;103885.97;5053151;28;20040;-73
2023/06/10 01:55:31;;;;;;;11.93;5.78;;;;;;;17.95;100.00;103898.97;5053746;28;20041;-72
2023/06/10 01:57:57;;;;;;;8.30;5.40;;;;;;;17.98;100.00;103887.00;5035697;28;20083;-74
2023/06/10 02:00:23;;;;;;;8.18;5.35;;;;;;;17.93;100.00;103860.34;5035365;28;20123;-74
2023/06/10 02:02:48;;;;;;;8.45;5.93;;;;;;;17.99;100.00;103854.34;5035194;28;20060;-75
2023/06/10 02:05:13;;;;;;;7.82;5.57;;;;;;;17.42;100.00;103751.09;5053279;28;20035;-73
2023/06/10 02:07:39;;;;;;;8.07;5.85;;;;;;;17.63;100.00;103795.84;5053133;28;20032;-73
2023/06/10 02:10:06;;;;;;;7.93;5.43;;;;;;;17.56;100.00;103788.97;5035552;28;20031;-72
2023/06/10 02:12:31;;;;;;;8.30;5.35;;;;;;;17.52;100.00;103786.34;5053381;28;20036;-72
2023/06/10 02:14:56;;;;;;;8.27;5.55;;;;;;;17.62;100.00;103762.38;5034476;28;20044;-72
2023/06/10 02:17:23;;;;;;;8.80;5.60;;;;;;;17.78;100.00;103788.19;5035174;28;20386;-75
2023/06/10 02:19:52;;;;;;;8.30;5.72;;;;;;;17.62;100.00;103752.09;5035342;28;20110;-70
2023/06/10 02:22:20;;;;;;;9.18;5.80;;;;;;;17.52;100.00;103758.03;5052935;28;20024;-75
2023/06/10 02:28:07;;;;;;;9.90;5.87;;;;;;;17.85;100.00;103777.06;5053127;28;20036;-71
2023/06/10 02:33:53;;;;;;;15.35;6.30;;;;;;;17.78;100.00;103788.19;5053166;28;20457;-72
2023/06/10 02:36:21;;;;;;;8.88;5.78;;;;;;;18.17;100.00;103795.16;5052287;28;20021;-69
2023/06/10 02:38:46;;;;;;;9.23;5.90;;;;;;;18.23;100.00;103746.22;5052288;28;20546;-68
2023/06/10 02:41:12;;;;;;;10.70;6.13;;;;;;;18.96;100.00;103812.44;5051299;28;20025;-70
2023/06/10 02:43:37;;;;;;;13.68;6.25;;;;;;;18.71;100.00;103746.25;5033924;28;20028;-70
2023/06/10 02:46:03;;;;;;;11.98;6.30;;;;;;;18.44;100.00;103763.47;5033613;28;20033;-70
2023/06/10 02:48:28;;;;;;;12.20;6.78;;;;;;;18.60;100.00;103760.88;5051541;28;20138;-71
2023/06/10 02:50:55;;;;;;;15.13;6.85;;;;;;;19.26;100.00;103846.78;5034475;28;20017;-69
2023/06/10 02:56:42;;;;;;;12.20;7.50;;;;;;;17.61;100.00;103732.38;5052120;28;20036;-71
2023/06/10 02:59:08;;;;;;;10.10;7.47;;;;;;;17.24;100.00;103135.41;5033569;28;20044;-71
2023/06/10 03:01:36;;;;;;;14.57;7.70;;;;;;;18.09;100.00;103132.28;5034101;28;20513;-71
2023/06/10 03:04:03;;;;;;;16.15;7.90;;;;;;;17.53;100.00;103067.53;5052001;28;20033;-71
2023/06/10 03:09:50;;;;;;;16.38;8.45;;;;;;;17.35;100.00;102921.84;5052266;28;20097;-71
2023/06/10 03:15:50;;;;;;;18.27;11.52;;;;;;;17.73;100.00;102852.00;5042683;28;20119;-71
2023/06/10 03:18:16;;;;;;;14.82;9.85;;;;;;;17.46;100.00;102760.50;5051797;28;20495;-71
2023/06/10 03:20:41;;;;;;;14.40;9.02;;;;;;;17.58;100.00;102777.56;5051951;28;20111;-71
2023/06/10 03:23:07;;;;;;;14.18;8.65;;;;;;;17.46;100.00;102799.09;5051543;28;20025;-71
2023/06/10 03:25:32;;;;;;;14.75;8.27;;;;;;;17.44;100.00;102775.09;5034599;28;20021;-71
2023/06/10 03:27:58;;;;;;;13.48;8.63;;;;;;;17.31;100.00;102733.22;5053099;28;20458;-71
2023/06/10 03:33:45;;;;;;;15.15;8.75;;;;;;;16.94;100.00;102536.56;5061320;28;20402;-72
2023/06/10 03:36:10;;;;;;;21.75;8.52;;;;;;;17.94;100.00;102540.22;5051181;28;20025;-72
2023/06/10 03:38:36;;;;;;;18.63;9.93;;;;;;;17.85;100.00;102545.53;5051621;28;20065;-72
2023/06/10 03:41:02;;;;;;;21.85;11.73;;;;;;;18.06;100.00;102594.09;5033799;28;20069;-72
2023/06/10 03:46:49;;;;;;;16.20;9.45;;;;;;;17.29;100.00;102667.25;5052113;28;20113;-72
2023/06/10 03:49:15;;;;;;;14.43;8.93;;;;;;;17.54;100.00;102568.34;5051510;28;20107;-72
2023/06/10 03:51:40;;;;;;;13.10;8.75;;;;;;;18.38;100.00;102683.72;5053900;28;20033;-72
2023/06/10 03:54:06;;;;;;;13.15;8.25;;;;;;;18.36;100.00;102708.66;5037880;28;20035;-72
2023/06/10 03:59:53;;;;;;;12.55;7.70;;;;;;;18.42;100.00;102851.09;5055838;28;20556;-71
2023/06/10 04:02:19;;;;;;;13.80;7.85;;;;;;;18.65;100.00;102871.44;5037040;28;20120;-71
2023/06/10 04:04:44;;;;;;;13.52;8.23;;;;;;;18.96;100.00;102984.41;5055257;28;20108;-71
2023/06/10 04:07:10;;;;;;;13.25;8.40;;;;;;;18.30;100.00;102950.91;5054712;28;20024;-71
2023/06/10 04:09:37;;;;;;;17.10;7.97;;;;;;;18.37;100.00;103056.47;5037320;28;20532;-71
2023/06/10 04:12:05;;;;;;;12.32;8.13;;;;;;;18.43;100.00;103113.13;5037583;28;20477;-72
2023/06/10 04:14:31;;;;;;;16.33;8.55;;;;;;;18.76;100.00;103187.53;5036985;28;20037;-71
2023/06/10 04:16:56;;;;;;;15.27;8.73;;;;;;;19.26;100.00;103388.25;5054460;28;20036;-71
2023/06/10 04:22:44;;;;;;;13.15;8.05;;;;;;;19.63;100.00;103587.63;5055042;28;20083;-72
2023/06/10 04:28:31;;;;;;;12.00;8.23;;;;;;;19.72;100.00;103606.50;5055207;28;20102;-72
2023/06/10 04:34:18;;;;;;;18.15;9.50;;;;;;;19.87;100.00;103484.09;5054885;28;20521;-72
2023/06/10 04:36:43;;;;;;;15.18;10.00;;;;;;;20.22;100.00;103538.03;5054638;28;20075;-73
2023/06/10 04:39:09;;;;;;;12.05;9.60;;;;;;;20.48;100.00;103538.59;5054160;28;20083;-73
2023/06/10 04:41:34;;;;;;;14.55;9.93;;;;;;;20.37;100.00;103595.59;5036507;28;20170;-73
2023/06/10 04:47:21;;;;;;;10.25;7.93;;;;;;;20.92;100.00;104196.22;5054978;28;20031;-72
2023/06/10 04:53:08;;;;;;;9.73;7.22;;;;;;;21.19;100.00;104376.56;5054843;28;20040;-72
2023/06/10 04:55:34;;;;;;;12.05;7.28;;;;;;;21.29;100.00;104417.97;5036068;28;20028;-72
2023/06/10 04:57:59;;;;;;;10.85;7.07;;;;;;;21.66;100.00;104469.72;5054056;28;20044;-73
2023/06/10 05:00:25;;;;;;;10.13;6.88;;;;;;;21.17;100.00;104422.31;5036137;28;20031;-73
2023/06/10 05:06:12;;;;;;;9.95;7.20;;;;;;;21.12;100.00;104461.16;5054102;28;20136;-71
2023/06/10 05:08:37;;;;;;;9.23;6.38;;;;;;;21.69;100.00;104537.13;5035807;28;20119;-72
2023/06/10 05:14:24;;;;;;;7.43;6.10;;;;;;;21.80;100.00;104550.91;5054264;28;20039;-73
2023/06/10 05:20:11;;;;;;;9.40;6.75;;;;;;;22.16;100.00;104727.25;5054538;28;20082;-73
2023/06/10 05:22:37;;;;;;;9.63;6.63;;;;;;;21.40;100.00;104724.50;5053132;28;20028;-72
2023/06/10 05:25:03;;;;;;;8.02;6.95;;;;;;;21.46;100.00;105267.78;5053917;28;20017;-72
2023/06/10 05:27:28;;;;;;;10.43;6.97;;;;;;;21.80;100.00;107451.06;5052890;28;20032;-72
2023/06/10 05:33:15;;;;;;;9.07;6.68;;;;;;;22.36;100.00;108064.75;5054022;28;20068;-72
2023/06/10 05:35:41;;;;;;;8.73;7.25;;;;;;;22.83;100.00;108129.63;5035549;28;20056;-71
2023/06/10 05:38:06;;;;;;;8.18;6.95;;;;;;;22.54;100.00;108048.34;5053034;28;20025;-72
2023/06/10 05:40:32;;;;;;;8.18;6.40;;;;;;;22.77;100.00;108103.31;5035531;28;20464;-72
2023/06/10 05:46:20;;;;;;;10.85;7.10;;;;;;;22.29;100.00;107953.59;5053779;28;20036;-74
2023/06/10 05:48:45;;;;;;;8.88;6.25;;;;;;;22.06;100.00;107909.09;5035259;28;20115;-73
2023/06/10 05:51:10;;;;;;;8.30;6.00;;;;;;;23.62;100.00;108249.00;5052824;28;20593;-73
2023/06/10 05:53:36;;;;;;;8.93;6.28;;;;;;;23.17;100.00;110111.84;5052635;28;20033;-73
2023/06/10 05:56:01;;;;;;;9.93;6.03;;;;;;;23.51;100.00;109960.19;5034979;28;20108;-74
2023/06/10 06:01:50;;;;;;;10.00;5.32;;;;;;;23.56;100.00;109153.53;5053548;28;20083;-74
2023/06/10 06:04:16;;;;;;;6.72;5.03;;;;;;;23.93;100.00;108921.56;5035001;28;20459;-71
2023/06/10 06:06:41;;;;;;;6.95;4.90;;;;;;;24.00;100.00;108792.59;5035073;28;20047;-72
2023/06/10 06:09:07;;;;;;;7.30;5.15;;;;;;;23.90;100.00;108486.50;5034910;28;20462;-72
2023/06/10 06:14:53;;;;;;;6.32;4.82;;;;;;;24.97;100.00;108096.34;5051862;28;20102;-72
2023/06/10 06:17:19;;;;;;;7.57;5.43;;;;;;;23.79;100.00;107696.25;5034921;28;20032;-71
2023/06/10 06:19:47;;;;;;;7.60;5.35;;;;;;;24.78;100.00;107917.41;5034616;28;20036;-72
2023/06/10 06:25:35;;;;;;;7.80;4.70;;;;;;;23.67;100.00;107534.41;5053114;28;20082;-72
2023/06/10 06:31:22;;;;;;;8.55;5.00;;;;;;;25.64;100.00;107860.66;5053044;28;20098;-73
2023/06/10 06:33:48;;;;;;;8.65;4.82;;;;;;;24.64;100.00;107360.78;5052284;28;20033;-72
2023/06/10 06:36:13;;;;;;;8.52;4.80;;;;;;;25.40;100.00;107286.56;5052709;28;20078;-72
2023/06/10 06:38:38;;;;;;;7.00;4.35;;;;;;;24.90;100.00;107093.91;5033588;28;20029;-72
2023/06/10 06:44:25;;;;;;;7.63;4.75;;;;;;;25.61;100.00;106743.38;5052638;28;20048;-72
2023/06/10 06:50:13;;;;;;;5.20;4.28;;;;;;;26.15;100.00;106456.06;5052491;28;20098;-71
2023/06/10 06:52:38;;;;;;;7.13;4.70;;;;;;;25.86;100.00;106244.28;5033918;28;20447;-72
2023/06/10 06:55:04;;;;;;;6.40;3.90;;;;;;;25.91;100.00;106112.03;5051459;28;20051;-72
2023/06/10 06:57:29;;;;;;;9.57;4.90;;;;;;;26.49;100.00;106059.22;5052804;28;20087;-72
2023/06/10 06:59:55;;;;;;;8.35;3.83;;;;;;;26.47;100.00;105882.41;5052148;28;20099;-72
2023/06/10 07:02:20;;;;;;;4.40;4.00;;;;;;;27.33;100.00;105795.94;5033523;28;20079;-72
2023/06/10 07:04:48;;;;;;;7.78;4.20;;;;;;;27.18;100.00;105741.03;5051656;28;20029;-71
2023/06/10 07:07:14;;;;;;;8.27;4.40;;;;;;;26.78;100.00;105703.75;5052170;28;20077;-72
2023/06/10 07:13:01;;;;;;;;;;;;;;;26.85;100.00;105832.72;5052308;28;20082;-74
2023/06/10 07:15:26;;;;;;;6.50;4.20;;;;;;;26.33;100.00;105732.63;5051450;28;20286;-73
2023/06/10 07:17:52;;;;;;;6.88;4.53;;;;;;;27.47;100.00;105841.22;5033381;28;20274;-73
2023/06/10 07:20:17;;;;;;;6.10;4.55;;;;;;;27.72;100.00;105679.63;5033677;28;20025;-74
2023/06/10 07:26:05;;;;;;;;;;;;;;;27.40;100.00;105126.09;5053710;28;20044;-74
2023/06/10 07:31:53;;;;;;;;;;;;;;;28.91;100.00;105091.66;5056642;28;20110;-71
2023/06/10 07:34:18;;;;;;;5.38;4.25;;;;;;;27.81;100.00;104721.38;5037272;28;19966;-71
2023/06/10 07:36:43;;;;;;;4.95;4.00;;;;;;;27.73;100.00;104686.69;5055139;28;20387;-71
2023/06/10 07:39:10;;;;;;;5.03;3.92;;;;;;;28.58;100.00;104615.44;5037147;28;20039;-71
2023/06/10 07:45:04;;;;;;;5.00;4.30;;;;;;;28.09;100.00;104376.75;5056007;28;20485;-71
2023/06/10 07:50:52;;;;;;;5.15;3.85;;;;;;;28.58;100.00;103939.34;5055915;28;20082;-71
2023/06/10 07:56:39;;;;;;;;;;;;;;;28.30;100.00;102904.31;5068778;28;20103;-71
2023/06/10 07:59:04;;;;;;;6.80;3.83;;;;;;;28.89;100.00;102500.84;5065390;28;20405;-71
2023/06/10 08:01:31;;;;;;;6.40;4.00;;;;;;;28.31;100.00;102330.00;5054955;28;20021;-71
2023/06/10 08:03:56;;;;;;;4.63;3.60;;;;;;;28.71;100.00;102006.09;5037331;28;20040;-72
2023/06/10 08:06:22;;;;;;;4.90;3.85;;;;;;;27.69;100.00;101742.13;5036867;28;20024;-71
2023/06/10 08:08:47;;;;;;;6.57;4.30;;;;;;;27.81;100.00;101806.63;5055093;28;20033;-71
2023/06/10 08:11:13;;;;;;;6.72;4.00;;;;;;;28.05;100.00;101700.22;5054996;28;20119;-71
2023/06/10 08:13:39;;;;;;;6.80;4.43;;;;;;;27.54;100.00;101680.44;5055130;28;20037;-71
2023/06/10 08:19:26;;;;;;;;;;;;;;;28.19;100.00;101582.28;5035486;28;20039;-71
2023/06/10 08:21:51;;;;;;;6.00;4.30;;;;;;;28.15;100.00;101489.28;5049915;28;19909;-71
2023/06/10 08:24:18;;;;;;;5.95;4.20;;;;;;;27.84;100.00;101354.78;5033271;28;20021;-71
2023/06/10 08:26:44;;;;;;;6.45;4.20;;;;;;;28.06;100.00;101215.31;5033392;28;20033;-71
2023/06/10 08:32:30;;;;;;;9.20;4.28;;;;;;;27.89;100.00;101001.38;5035007;28;20035;-71
2023/06/10 08:34:56;;;;;;;7.43;4.15;;;;;;;27.52;100.00;100890.34;5032695;28;20029;-71
2023/06/10 08:37:22;;;;;;;5.60;4.15;;;;;;;27.87;100.00;100805.34;5032025;28;20482;-71
2023/06/10 08:39:47;;;;;;;9.48;4.30;;;;;;;28.09;100.00;100780.78;5032780;28;20033;-71
2023/06/10 08:42:23;;;;;;;7.90;4.40;;;;;;;28.05;100.00;100720.09;5033801;28;20036;-72
2023/06/10 08:44:54;;;;;;;8.80;4.78;;;;;;;27.42;100.00;100608.94;5033209;28;20059;-71
2023/06/10 08:47:22;;;;;;;;;;;;;;;27.99;100.00;100626.47;5033782;28;20025;-72
2023/06/10 08:53:13;;;;;;;7.95;4.63;;;;;;;27.50;100.00;100437.56;5034317;28;20040;-71
2023/06/10 08:55:42;;;;;;;9.63;5.20;;;;;;;27.51;100.00;100487.09;5034289;28;20113;-71
2023/06/10 08:58:07;;;;;;;8.18;5.03;;;;;;;27.58;100.00;100453.38;5034394;28;20037;-73
2023/06/10 09:00:34;;;;;;;6.93;4.53;;;;;;;27.50;100.00;100346.09;5032322;28;20017;-71
2023/06/10 09:06:22;;;;;;;7.22;4.30;;;;;;;27.44;100.00;100350.13;5034380;28;20147;-71
2023/06/10 09:08:48;;;;;;;11.10;4.38;;;;;;;27.17;100.00;100277.72;5031866;28;20487;-71
2023/06/10 09:11:13;;;;;;;7.80;4.65;;;;;;;27.55;100.00;100305.56;5034208;28;20368;-71
2023/06/10 09:13:39;;;;;;;7.68;4.20;;;;;;;27.35;100.00;100242.09;5032715;28;20029;-71
2023/06/10 09:16:04;;;;;;;6.53;4.20;;;;;;;27.41;100.00;100238.88;5032190;28;20101;-71
2023/06/10 09:18:30;;;;;;;7.40;4.20;;;;;;;27.19;100.00;100160.88;5033804;28;20063;-71
2023/06/10 09:20:56;;;;;;;7.03;4.35;;;;;;;28.58;100.00;100183.94;5032505;28;20025;-71
2023/06/10 09:26:44;;;;;;;7.72;3.83;;;;;;;28.50;100.00;100029.44;5033997;28;20064;-71
2023/06/10 09:29:11;;;;;;;6.70;3.85;;;;;;;28.16;100.00;99961.41;5031825;28;20017;-72
2023/06/10 09:31:39;;;;;;;6.10;4.07;;;;;;;27.95;100.00;99992.28;5033522;28;20537;-71
2023/06/10 09:34:09;;;;;;;6.03;3.92;;;;;;;27.48;100.00;100011.81;5033700;28;20025;-71
2023/06/10 09:40:08;;;;;;;6.55;3.75;;;;;;;27.64;100.00;100014.59;5033382;28;20279;-71
2023/06/10 09:42:35;;;;;;;4.65;3.78;;;;;;;27.63;100.00;99999.88;5031922;28;20486;-71
2023/06/10 09:45:01;;;;;;;8.70;4.30;;;;;;;27.73;100.00;99989.34;5033335;28;20041;-71
2023/06/10 09:47:27;;;;;;;7.28;4.00;;;;;;;27.76;100.00;99941.97;5033300;28;20021;-71
2023/06/10 09:49:53;;;;;;;6.57;3.40;;;;;;;27.16;100.00;99949.63;5032921;28;20029;-71
2023/06/10 09:55:41;;;;;;;6.85;4.10;;;;;;;27.48;100.00;99909.94;5033434;28;20083;-71
2023/06/10 09:58:07;;;;;;;4.55;3.40;;;;;;;27.40;100.00;99912.47;5033157;28;20033;-72
2023/06/10 10:00:33;;;;;;;7.20;3.90;;;;;;;27.37;100.00;99837.03;5033166;28;20100;-71
2023/06/10 10:03:00;;;;;;;6.35;4.00;;;;;;;28.30;100.00;99852.72;5032672;28;20086;-71
2023/06/10 10:08:51;;;;;;;9.85;6.20;;;;;;;28.22;100.00;99795.97;5033174;28;20044;-70
2023/06/10 10:11:18;;;;;;;8.75;4.70;;;;;;;27.55;100.00;99763.84;5033080;28;20049;-70
2023/06/10 10:13:47;;;;;;;6.20;3.83;;;;;;;27.31;100.00;99785.38;5033145;28;20029;-70
2023/06/10 10:16:22;;;;;;;9.55;5.53;;;;;;;27.53;100.00;99863.28;5018633;28;20088;-70
2023/06/10 10:18:55;;;;;;;8.82;4.55;;;;;;;27.30;100.00;99831.56;5011492;28;20066;-71
2023/06/10 10:21:24;;;;;;;6.82;3.90;;;;;;;27.39;100.00;99794.09;5011577;28;20025;-70
2023/06/10 10:24:01;;;;;;;7.80;4.53;;;;;;;27.66;100.00;99845.38;5013011;28;20113;-70
2023/06/10 10:26:27;;;;;;;5.22;3.50;;;;;;;27.25;100.00;99799.06;5012536;28;20030;-70
2023/06/10 10:29:04;;;;;;;7.18;4.10;;;;;;;27.56;100.00;99795.03;5011635;28;20080;-71
2023/06/10 10:31:33;;;;;;;7.80;5.13;;;;;;;28.19;100.00;99804.13;5011686;28;20025;-71
2023/06/10 10:34:00;;;;;;;9.38;4.75;;;;;;;27.81;100.00;99747.09;5012482;28;20025;-71
2023/06/10 10:36:27;;;;;;;7.95;4.65;;;;;;;27.37;100.00;99758.69;5012394;28;20117;-71
2023/06/10 10:42:15;;;;;;;9.23;4.40;;;;;;;27.36;100.00;99752.63;5012984;28;20036;-70
2023/06/10 10:44:41;;;;;;;7.88;4.60;;;;;;;27.74;100.00;99797.56;5012837;28;20026;-70
2023/06/10 10:47:12;;;;;;;7.72;4.93;;;;;;;28.08;100.00;99728.59;5010767;28;20030;-70
2023/06/10 10:49:39;;;;;;;8.13;5.13;;;;;;;28.05;100.00;99780.38;5012671;28;20060;-70
2023/06/10 10:55:27;;;;;;;7.28;4.32;;;;;;;27.24;100.00;99755.63;5012761;28;20044;-71
2023/06/10 10:58:06;;;;;;;6.75;5.13;;;;;;;27.48;100.00;99817.66;5010775;28;20542;-72
2023/06/10 11:00:45;;;;;;;8.52;4.80;;;;;;;27.53;100.00;99747.50;5011964;28;20030;-70
2023/06/10 11:06:32;;;;;;;9.90;5.25;;;;;;;27.97;100.00;99767.31;5012610;28;20040;-71
2023/06/10 11:08:59;;;;;;;11.48;5.93;;;;;;;27.39;100.00;99710.50;5010498;28;20030;-70
2023/06/10 11:11:27;;;;;;;8.30;5.20;;;;;;;27.61;100.00;99797.19;5011067;28;20061;-71
2023/06/10 11:14:02;;;;;;;8.30;5.13;;;;;;;27.99;100.00;99802.75;5012470;28;20483;-71
2023/06/10 11:16:28;;;;;;;10.70;5.57;;;;;;;28.13;100.00;99769.94;5040598;28;20090;-71
2023/06/10 11:18:54;;;;;;;7.68;4.40;;;;;;;27.75;100.00;99728.66;5033512;28;20029;-71
2023/06/10 11:21:20;;;;;;;6.47;3.72;;;;;;;26.96;100.00;99715.78;5033759;28;20025;-71
2023/06/10 11:23:46;;;;;;;6.97;4.13;;;;;;;27.67;100.00;99775.66;5033724;28;20025;-71
2023/06/10 11:26:14;;;;;;;8.23;3.72;;;;;;;27.63;100.00;99843.09;5050980;28;20052;-71
2023/06/10 11:29:01;;;;;;;7.43;3.53;;;;;;;28.29;100.00;99804.81;5051922;28;20104;-71
2023/06/10 11:31:28;;;;;;;7.05;4.50;;;;;;;28.58;100.00;99800.97;5032869;28;20033;-71
2023/06/10 11:33:56;;;;;;;9.38;5.65;;;;;;;28.35;100.00;99786.81;5033558;28;20059;-70
2023/06/10 11:36:22;;;;;;;5.85;4.85;;;;;;;28.17;100.00;99727.63;5051950;28;20033;-71
2023/06/10 11:42:09;;;;;;;5.97;4.78;;;;;;;28.20;100.00;99705.56;5051818;28;20036;-70
2023/06/10 11:44:37;;;;;;;12.20;7.25;;;;;;;28.42;100.00;99650.00;5051281;28;20032;-70
2023/06/10 11:47:03;;;;;;;7.75;4.65;;;;;;;28.65;100.00;99720.81;5051874;28;20028;-70
2023/06/10 11:49:28;;;;;;;6.72;4.32;;;;;;;28.86;100.00;99619.84;5051214;28;20025;-70
2023/06/10 11:55:15;;;;;;;;;;;;;;;29.27;100.00;99687.84;5052116;28;20036;-70
2023/06/10 12:01:02;;;;;;;;;;;;;;;28.66;100.00;99702.31;5052088;28;20453;-70
2023/06/10 12:06:51;;;;;;;8.63;4.60;;;;;;;28.02;100.00;99658.66;5051652;28;20048;-71
2023/06/10 12:12:38;;;;;;;;;;;;;;;29.05;100.00;99676.25;5053903;28;20119;-70
2023/06/10 12:15:05;;;;;;;8.05;4.50;;;;;;;29.05;100.00;99661.38;5053148;28;19960;-70
2023/06/10 12:17:31;;;;;;;7.45;4.50;;;;;;;30.10;100.00;99610.19;5036754;28;20028;-72
2023/06/10 12:19:57;;;;;;;8.32;4.85;;;;;;;29.37;100.00;99636.88;5054879;28;20086;-70
2023/06/10 12:22:24;;;;;;;7.07;4.78;;;;;;;29.49;100.00;99643.38;5038003;28;20031;-70
2023/06/10 12:25:01;;;;;;;9.43;5.28;;;;;;;28.75;100.00;99622.81;5063103;28;20021;-70
2023/06/10 12:27:29;;;;;;;7.35;5.20;;;;;;;28.58;100.00;99612.56;5062666;28;20135;-70
2023/06/10 12:29:55;;;;;;;7.25;5.07;;;;;;;29.19;100.00;99546.41;5036963;28;20056;-70
2023/06/10 12:32:27;;;;;;;9.00;5.05;;;;;;;29.31;100.00;99572.06;5036383;28;20063;-70
2023/06/10 12:35:03;;;;;;;8.10;4.93;;;;;;;29.38;100.00;99559.88;5036890;28;20398;-70
2023/06/10 12:40:51;;;;;;;5.70;4.85;;;;;;;28.42;100.00;99526.19;5054832;28;20505;-70
2023/06/10 12:46:38;;;;;;;;;;;;;;;30.05;100.00;99567.97;5054903;28;20472;-71
2023/06/10 12:49:03;;;;;;;7.40;5.07;;;;;;;29.23;100.00;99600.91;5053785;28;19904;-71
2023/06/10 12:51:29;;;;;;;10.52;4.82;;;;;;;30.22;100.00;99527.44;5036107;28;20024;-70
2023/06/10 12:53:54;;;;;;;7.03;5.25;;;;;;;28.68;100.00;99605.34;5036076;28;20043;-70
2023/06/10 12:59:44;;;;;;;8.43;4.78;;;;;;;28.88;100.00;99544.56;5054191;28;20094;-72
2023/06/10 13:05:31;;;;;;;6.57;5.07;;;;;;;29.04;100.00;99575.09;5054386;28;20106;-72
2023/06/10 13:07:57;;;;;;;9.25;4.95;;;;;;;29.41;100.00;99574.44;5053929;28;20083;-72
2023/06/10 13:10:23;;;;;;;5.80;4.28;;;;;;;29.49;100.00;99464.34;5035939;28;20025;-71
2023/06/10 13:12:49;;;;;;;8.15;4.63;;;;;;;29.74;100.00;99484.13;5036051;28;20111;-73
2023/06/10 13:15:15;;;;;;;8.38;4.60;;;;;;;30.06;100.00;99551.22;5053869;28;20037;-72
2023/06/10 13:21:02;;;;;;;;;;;;;;;29.78;100.00;99577.19;5054238;28;20024;-72
2023/06/10 13:23:28;;;;;;;7.70;4.45;;;;;;;30.35;100.00;99535.53;5052953;28;19909;-72
2023/06/10 13:25:53;;;;;;;6.97;4.60;;;;;;;29.87;100.00;99505.34;5053891;28;20060;-72
2023/06/10 13:28:19;;;;;;;5.65;4.45;;;;;;;30.65;100.00;99547.69;5035164;28;20462;-72
2023/06/10 13:30:45;;;;;;;5.88;4.72;;;;;;;30.00;100.00;99500.28;5053354;28;20044;-71
2023/06/10 13:33:10;;;;;;;8.77;4.57;;;;;;;29.55;100.00;99592.06;5052911;28;20471;-71
2023/06/10 13:35:36;;;;;;;6.22;4.68;;;;;;;29.31;100.00;99600.88;5035274;28;20394;-70
2023/06/10 13:38:01;;;;;;;6.97;4.80;;;;;;;30.32;100.00;99576.09;5034884;28;20481;-71
2023/06/10 13:43:49;;;;;;;7.55;4.47;;;;;;;28.74;100.00;99492.91;5053431;28;20540;-70
2023/06/10 13:49:36;;;;;;;;;;;;;;;30.43;100.00;99538.91;5053942;28;20036;-70
2023/06/10 13:55:24;;;;;;;6.95;4.85;;;;;;;30.62;100.00;99538.34;5053493;28;20410;-72
2023/06/10 13:57:50;;;;;;;8.52;4.68;;;;;;;29.56;100.00;99515.88;5034663;28;20033;-70
2023/06/10 14:00:16;;;;;;;6.75;4.70;;;;;;;30.65;100.00;99532.75;5034256;28;20409;-69
2023/06/10 14:02:41;;;;;;;7.63;5.00;;;;;;;28.73;100.00;99609.06;5034399;28;20463;-69
2023/06/10 14:08:28;;;;;;;10.43;5.18;;;;;;;28.92;100.00;99590.34;5053209;28;20405;-70
2023/06/10 14:10:54;;;;;;;6.60;5.50;;;;;;;28.31;100.00;99550.13;5035021;28;20025;-69
2023/06/10 14:13:19;;;;;;;6.15;4.63;;;;;;;28.51;100.00;99611.53;5052503;28;20364;-70
2023/06/10 14:15:46;;;;;;;7.35;4.90;;;;;;;28.45;100.00;99625.28;5034737;28;20537;-70
2023/06/10 14:18:12;;;;;;;7.03;4.70;;;;;;;27.92;100.00;99620.53;5034317;28;20025;-70
2023/06/10 14:20:37;;;;;;;7.38;4.63;;;;;;;28.02;100.00;99588.06;5034410;28;20033;-70
2023/06/10 14:23:02;;;;;;;9.70;5.05;;;;;;;27.96;100.00;99590.50;5052733;28;20028;-70
2023/06/10 14:25:28;;;;;;;9.75;4.75;;;;;;;28.21;100.00;99579.84;5052385;28;20398;-70
2023/06/10 14:31:15;;;;;;;10.75;4.80;;;;;;;27.77;100.00;99515.78;5052836;28;20506;-69
2023/06/10 14:33:43;;;;;;;8.90;5.05;;;;;;;28.71;100.00;99563.94;5052331;28;20025;-69
2023/06/10 14:36:08;;;;;;;8.88;4.93;;;;;;;28.25;100.00;99614.34;5033369;28;20029;-72
2023/06/10 14:38:34;;;;;;;6.07;4.60;;;;;;;28.24;100.00;99607.50;5051877;28;20032;-69
2023/06/10 14:40:59;;;;;;;8.05;4.80;;;;;;;28.01;100.00;99548.97;5051922;28;20021;-70
2023/06/10 14:43:25;;;;;;;7.53;4.45;;;;;;;28.36;100.00;99603.56;5033891;28;20028;-69
2023/06/10 14:45:51;;;;;;;6.88;5.15;;;;;;;28.85;100.00;99567.66;5052341;28;20021;-70
2023/06/10 14:48:16;;;;;;;8.32;5.03;;;;;;;28.97;100.00;99571.53;5052109;28;20037;-70
2023/06/10 14:54:03;;;;;;;7.35;4.32;;;;;;;27.94;100.00;99540.97;5052358;28;20070;-70